Time;durP1;ratioP1;P1;durP2;ratioP2;P2;SDS_P1;SDS_P2;PMS_P1;PMS_P2;Temp;Humidity;BMP_temperature;BMP_pressure;BME280_temperature;BME280_humidity;BME280_pressure;Samples;Min_cycle;Max_cycle;Signal;HPM_P1;HPM_P2
2023/02/14 05:06:30;;;;;;;9.43;5.05;;;-0.70;99.90;;;;;;4957710;28;20261;-64
2023/02/14 05:08:55;;;;;;;12.80;6.87;;;-0.70;99.90;;;;;;4955940;28;20738;-63
2023/02/14 05:11:21;;;;;;;10.67;6.60;;;-0.70;99.90;;;;;;4955882;28;20507;-63
2023/02/14 05:13:47;;;;;;;12.73;7.97;;;-0.70;99.90;;;;;;4955378;28;20283;-64
2023/02/14 05:16:12;;;;;;;16.10;7.20;;;-0.70;99.90;;;;;;4970607;28;20411;-63
2023/02/14 05:18:38;;;;;;;11.10;7.20;;;-0.80;99.90;;;;;;4956305;28;20173;-64
2023/02/14 05:21:04;;;;;;;7.23;6.60;;;-0.80;99.90;;;;;;4955721;28;20187;-63
2023/02/14 05:23:29;;;;;;;10.53;7.37;;;-0.80;99.90;;;;;;4955082;28;20234;-63
2023/02/14 05:25:55;;;;;;;14.93;7.07;;;-0.80;99.90;;;;;;4955585;28;20179;-64
2023/02/14 05:28:21;;;;;;;11.60;5.43;;;-0.70;99.90;;;;;;4955735;28;20539;-63
2023/02/14 05:30:46;;;;;;;10.57;8.10;;;-0.70;99.90;;;;;;4955378;28;20219;-63
2023/02/14 05:33:12;;;;;;;10.63;7.73;;;-0.80;99.90;;;;;;4953629;28;20582;-63
2023/02/14 05:35:38;;;;;;;20.53;7.43;;;-0.80;99.90;;;;;;4969152;28;20206;-63
2023/02/14 05:38:04;;;;;;;13.50;6.90;;;-0.70;99.90;;;;;;4955362;28;20244;-63
2023/02/14 05:40:29;;;;;;;12.02;7.28;;;-0.80;99.90;;;;;;4955198;28;20324;-62
2023/02/14 05:42:55;;;;;;;12.60;8.17;;;-0.80;99.90;;;;;;4955083;28;20633;-63
2023/02/14 05:45:21;;;;;;;8.83;5.17;;;-0.80;99.90;;;;;;4955048;28;20192;-63
2023/02/14 05:47:48;;;;;;;8.70;6.03;;;-0.80;99.90;;;;;;4955111;28;20179;-64
2023/02/14 05:50:13;;;;;;;11.48;6.93;;;-0.90;99.90;;;;;;4955178;28;20206;-63
2023/02/14 05:52:39;;;;;;;12.30;6.97;;;-0.90;99.90;;;;;;4955221;28;20171;-65
2023/02/14 05:55:05;;;;;;;11.87;7.10;;;-0.90;99.90;;;;;;4954870;28;20284;-63
2023/02/14 05:57:31;;;;;;;9.02;5.95;;;-0.90;99.90;;;;;;4955265;28;20183;-63
2023/02/14 05:59:57;;;;;;;9.32;6.57;;;-0.90;99.90;;;;;;4955104;28;20175;-63
2023/02/14 06:02:23;;;;;;;13.87;6.00;;;-0.90;99.90;;;;;;4954646;28;20176;-62
2023/02/14 06:04:48;;;;;;;13.03;6.90;;;-0.90;99.90;;;;;;4969209;28;20562;-63
2023/02/14 06:07:14;;;;;;;19.00;6.30;;;-0.90;99.90;;;;;;4954802;29;20440;-63
2023/02/14 06:09:39;;;;;;;8.03;5.43;;;-0.90;99.90;;;;;;4954562;29;20603;-63
2023/02/14 06:12:05;;;;;;;15.43;7.93;;;-0.90;99.90;;;;;;4954810;29;20187;-62
2023/02/14 06:14:31;;;;;;;8.30;6.32;;;-0.90;99.90;;;;;;4954395;29;20204;-63
2023/02/14 06:16:56;;;;;;;14.53;6.30;;;-0.90;99.90;;;;;;4954786;28;20725;-71
2023/02/14 06:19:22;;;;;;;16.23;7.57;;;-0.90;99.90;;;;;;4954583;28;20180;-64
2023/02/14 06:21:48;;;;;;;16.27;6.43;;;-0.90;99.90;;;;;;4969695;28;20184;-63
2023/02/14 06:24:14;;;;;;;8.83;6.00;;;-0.90;99.90;;;;;;4953876;28;20202;-63
2023/02/14 06:26:39;;;;;;;10.40;7.13;;;-0.90;99.90;;;;;;4954849;29;20424;-63
2023/02/14 06:29:05;;;;;;;7.87;5.23;;;-0.80;99.90;;;;;;4954734;28;20550;-63
2023/02/14 06:31:31;;;;;;;12.00;6.97;;;-0.80;99.90;;;;;;4954760;28;20180;-63
2023/02/14 06:33:56;;;;;;;12.00;6.90;;;-0.80;99.90;;;;;;4954034;29;20191;-61
2023/02/14 06:36:22;;;;;;;12.30;7.87;;;-0.90;99.90;;;;;;4954809;28;20174;-62
2023/02/14 06:38:48;;;;;;;13.25;9.05;;;-1.00;99.90;;;;;;4953089;29;20173;-62
2023/02/14 06:41:18;;;;;;;12.10;7.13;;;-1.00;99.90;;;;;;4954869;28;20173;-62
2023/02/14 06:43:47;;;;;;;11.80;8.15;;;-1.00;99.90;;;;;;4956490;28;20211;-64
2023/02/14 06:46:14;;;;;;;15.40;8.30;;;-1.00;99.90;;;;;;4958354;28;20220;-66
2023/02/14 06:48:40;;;;;;;7.25;5.75;;;-1.00;99.90;;;;;;4957721;28;20180;-63
2023/02/14 06:51:05;;;;;;;8.85;7.28;;;-1.00;99.90;;;;;;4958359;28;20182;-62
2023/02/14 06:53:31;;;;;;;12.70;8.77;;;-0.90;99.90;;;;;;4957436;29;20584;-64
2023/02/14 06:55:56;;;;;;;12.50;7.40;;;-0.90;99.90;;;;;;4957794;28;20549;-63
2023/02/14 06:58:22;;;;;;;11.07;8.23;;;-0.80;99.90;;;;;;4956822;28;20174;-64
2023/02/14 07:00:48;;;;;;;10.10;7.27;;;-0.70;99.90;;;;;;4957551;28;20186;-63
2023/02/14 07:03:14;;;;;;;17.40;8.67;;;-0.70;99.90;;;;;;4956666;28;20422;-63
2023/02/14 07:05:40;;;;;;;14.00;7.40;;;-0.50;99.90;;;;;;4957674;28;20462;-65
2023/02/14 07:08:07;;;;;;;7.83;6.53;;;-0.50;99.90;;;;;;4957808;28;20413;-63
2023/02/14 07:10:33;;;;;;;19.10;9.27;;;-0.30;99.90;;;;;;4957527;28;20196;-63
2023/02/14 07:12:59;;;;;;;17.70;7.72;;;-0.30;99.90;;;;;;4957450;28;20184;-62
2023/02/14 07:15:25;;;;;;;12.68;7.85;;;-0.20;99.90;;;;;;4956476;29;20671;-64
2023/02/14 07:17:51;;;;;;;16.83;10.27;;;0.00;99.90;;;;;;4957903;29;20191;-63
2023/02/14 07:20:17;;;;;;;16.73;10.40;;;0.10;99.90;;;;;;4957804;28;20643;-62
2023/02/14 07:22:43;;;;;;;16.67;11.90;;;0.20;99.90;;;;;;4957630;28;20183;-64
2023/02/14 07:25:08;;;;;;;17.20;10.65;;;0.30;99.90;;;;;;4956204;29;20670;-64
2023/02/14 07:27:34;;;;;;;12.40;9.93;;;0.40;99.90;;;;;;4957650;28;20180;-62
2023/02/14 07:30:00;;;;;;;18.67;8.97;;;0.50;99.90;;;;;;4957385;29;20694;-62
2023/02/14 07:32:25;;;;;;;17.53;12.07;;;0.70;99.90;;;;;;4957526;29;20179;-64
2023/02/14 07:34:51;;;;;;;17.80;10.57;;;0.80;99.90;;;;;;4957178;28;20279;-63
2023/02/14 07:37:17;;;;;;;16.10;10.80;;;1.00;99.90;;;;;;4957451;28;20180;-65
2023/02/14 07:39:44;;;;;;;17.80;10.30;;;1.40;99.90;;;;;;4957335;28;20207;-68
2023/02/14 07:42:09;;;;;;;18.27;12.35;;;1.80;99.90;;;;;;4955770;28;20263;-65
2023/02/14 07:44:37;;;;;;;25.00;12.20;;;2.20;99.90;;;;;;4955743;29;20320;-64
2023/02/14 07:47:07;;;;;;;16.08;11.32;;;2.30;99.90;;;;;;4957212;28;20651;-68
2023/02/14 07:49:33;;;;;;;13.73;9.18;;;2.40;99.90;;;;;;4957083;28;20318;-62
2023/02/14 07:51:58;;;;;;;16.10;9.83;;;2.30;99.90;;;;;;4957136;29;20537;-62
2023/02/14 07:54:24;;;;;;;18.27;9.33;;;2.40;99.90;;;;;;4956114;28;20433;-62
2023/02/14 07:56:50;;;;;;;17.93;11.17;;;2.80;99.90;;;;;;4957015;28;20418;-62
2023/02/14 07:59:15;;;;;;;10.33;9.00;;;3.40;99.90;;;;;;4957014;28;20198;-63
2023/02/14 08:01:41;;;;;;;14.10;9.97;;;3.90;99.90;;;;;;4957180;28;20654;-62
2023/02/14 08:04:07;;;;;;;12.43;8.33;;;4.40;99.90;;;;;;4956855;28;20208;-62
2023/02/14 08:06:33;;;;;;;11.95;7.95;;;4.90;99.90;;;;;;4956889;28;20189;-62
2023/02/14 08:08:59;;;;;;;11.68;7.63;;;5.70;99.90;;;;;;4956934;28;20284;-63
2023/02/14 08:14:09;;;;;;;10.47;7.97;;;7.20;99.90;;;;;;4956376;29;20197;-65
2023/02/14 08:16:34;;;;;;;11.70;8.60;;;8.00;99.90;;;;;;4956781;28;20910;-65
2023/02/14 08:19:01;;;;;;;10.90;7.13;;;8.60;99.90;;;;;;4956645;29;20177;-64
2023/02/14 08:21:26;;;;;;;10.63;8.20;;;9.30;99.90;;;;;;4956644;28;20173;-65
2023/02/14 08:23:52;;;;;;;8.30;7.30;;;10.10;99.90;;;;;;4956130;28;20434;-63
2023/02/14 08:26:17;;;;;;;12.87;8.83;;;10.60;99.90;;;;;;4956189;29;20234;-65
2023/02/14 08:28:43;;;;;;;10.70;7.70;;;11.10;99.90;;;;;;4955973;28;20269;-61
2023/02/14 08:31:09;;;;;;;14.23;9.70;;;11.50;98.20;;;;;;4956153;28;20175;-64
2023/02/14 08:33:35;;;;;;;11.50;8.67;;;11.90;95.50;;;;;;4956080;29;20416;-65
2023/02/14 08:36:01;;;;;;;11.57;9.33;;;12.00;95.20;;;;;;4956174;28;20424;-63
2023/02/14 08:38:27;;;;;;;12.57;9.30;;;12.10;94.20;;;;;;4956423;28;20244;-63
2023/02/14 08:40:54;;;;;;;12.30;8.80;;;12.30;93.40;;;;;;4956124;28;20762;-64
2023/02/14 08:43:19;;;;;;;11.17;8.30;;;12.60;92.20;;;;;;4955817;28;20926;-63
2023/02/14 08:45:45;;;;;;;10.80;9.00;;;12.80;91.80;;;;;;4956173;28;20468;-65
2023/02/14 08:48:12;;;;;;;10.30;7.97;;;13.10;91.20;;;;;;4956324;28;20287;-62
2023/02/14 08:50:38;;;;;;;12.70;9.60;;;13.40;90.30;;;;;;4970739;28;20212;-64
2023/02/14 08:53:10;;;;;;;14.07;9.43;;;13.90;89.60;;;;;;4955860;28;20501;-63
2023/02/14 08:55:36;;;;;;;10.90;7.90;;;14.20;88.10;;;;;;4970767;28;20497;-63
2023/02/14 08:58:02;;;;;;;10.80;8.40;;;14.40;86.80;;;;;;4955864;28;20478;-65
2023/02/14 09:00:29;;;;;;;12.40;9.20;;;14.80;85.00;;;;;;4954233;28;20475;-63
2023/02/14 09:02:55;;;;;;;9.87;8.03;;;15.10;83.60;;;;;;4940799;29;20441;-65
2023/02/14 09:05:22;;;;;;;13.17;8.90;;;15.10;83.70;;;;;;4955379;28;20507;-65
2023/02/14 09:07:48;;;;;;;11.90;9.57;;;15.20;80.90;;;;;;4935653;29;20238;-63
2023/02/14 09:10:14;;;;;;;12.83;8.93;;;14.90;81.10;;;;;;4935349;29;20974;-62
2023/02/14 09:12:40;;;;;;;11.40;8.93;;;14.70;83.40;;;;;;4954436;29;20424;-62
2023/02/14 09:15:08;;;;;;;12.03;7.97;;;14.80;83.70;;;;;;4955618;28;20280;-63
2023/02/14 09:17:34;;;;;;;9.80;8.50;;;14.80;83.00;;;;;;4955675;28;20872;-62
2023/02/14 09:20:00;;;;;;;10.03;7.43;;;15.00;82.60;;;;;;4955719;28;20436;-62
2023/02/14 09:22:25;;;;;;;10.13;8.00;;;15.20;82.10;;;;;;4955484;28;20391;-63
2023/02/14 09:24:51;;;;;;;11.63;8.23;;;15.50;81.90;;;;;;4955199;28;20622;-64
2023/02/14 09:27:16;;;;;;;9.40;8.10;;;15.80;80.60;;;;;;4955370;28;20177;-61
2023/02/14 09:29:42;;;;;;;9.10;7.53;;;15.80;80.40;;;;;;4955479;28;20284;-62
2023/02/14 09:32:08;;;;;;;14.50;9.00;;;15.90;81.50;;;;;;4955716;29;20224;-64
2023/02/14 09:37:19;;;;;;;8.67;6.83;;;15.90;81.50;;;;;;4955360;29;20435;-63
2023/02/14 09:39:44;;;;;;;9.07;7.70;;;16.00;80.40;;;;;;4954691;29;20425;-63
2023/02/14 09:42:33;;;;;;;11.10;8.07;;;16.20;79.40;;;;;;4954592;28;20539;-66
2023/02/14 09:45:07;;;;;;;13.50;7.60;;;16.40;79.50;;;;;;4954923;29;20189;-63
2023/02/14 09:48:03;;;;;;;10.40;8.23;;;16.70;78.50;;;;;;4955899;28;20755;-64
2023/02/14 09:50:44;;;;;;;8.17;7.40;;;16.80;76.70;;;;;;4955136;28;20465;-65
2023/02/14 09:53:21;;;;;;;10.57;8.17;;;16.70;77.30;;;;;;4954839;29;20482;-64
2023/02/14 09:56:21;;;;;;;9.53;7.00;;;16.90;76.90;;;;;;4954766;28;20454;-64
2023/02/14 09:58:55;;;;;;;10.47;8.23;;;17.10;76.70;;;;;;4955114;28;20936;-64
2023/02/14 10:01:26;;;;;;;10.70;8.63;;;17.40;75.70;;;;;;4955121;28;20376;-64
2023/02/14 10:04:37;;;;;;;9.70;8.17;;;17.40;74.70;;;;;;4954791;28;20395;-63
2023/02/14 10:07:13;;;;;;;9.03;8.13;;;17.00;74.30;;;;;;4953826;29;20462;-62
2023/02/14 10:09:58;;;;;;;11.47;8.50;;;16.70;75.70;;;;;;4954781;28;20989;-63
2023/02/14 10:12:46;;;;;;;8.47;7.57;;;16.70;75.20;;;;;;4955245;28;20434;-66
2023/02/14 10:15:17;;;;;;;10.17;9.07;;;16.90;76.20;;;;;;4953815;29;20443;-62
2023/02/14 10:17:59;;;;;;;11.77;8.47;;;17.10;75.10;;;;;;4955901;28;20401;-64
2023/02/14 10:20:32;;;;;;;11.83;8.13;;;17.20;74.60;;;;;;4958877;28;20435;-63
2023/02/14 10:23:23;;;;;;;11.20;8.27;;;17.20;75.70;;;;;;4973245;28;20479;-63
2023/02/14 10:25:59;;;;;;;12.50;8.83;;;17.50;74.10;;;;;;4973094;28;21057;-62
2023/02/14 10:28:43;;;;;;;10.60;8.17;;;17.40;74.80;;;;;;4958894;28;20458;-63
2023/02/14 10:32:01;;;;;;;9.53;7.90;;;17.20;73.90;;;;;;4959147;28;20405;-63
2023/02/14 10:34:40;;;;;;;10.30;8.13;;;17.00;75.40;;;;;;4939893;29;20954;-65
2023/02/14 10:37:30;;;;;;;11.47;8.60;;;17.00;75.00;;;;;;4956766;29;20712;-64
2023/02/14 10:40:16;;;;;;;11.37;8.23;;;16.90;74.80;;;;;;4956422;29;20682;-65
2023/02/14 10:43:05;;;;;;;10.90;7.93;;;16.90;74.50;;;;;;4956074;29;20770;-66
2023/02/14 10:45:50;;;;;;;11.90;9.07;;;16.90;75.10;;;;;;4956415;29;20458;-63
2023/02/14 10:48:58;;;;;;;13.10;8.40;;;17.10;75.00;;;;;;4956635;29;20491;-64
2023/02/14 10:51:57;;;;;;;12.37;8.90;;;17.00;74.90;;;;;;4940438;29;20421;-63
2023/02/14 10:54:37;;;;;;;14.43;8.50;;;16.60;75.50;;;;;;4904957;29;20912;-62
2023/02/14 10:57:03;;;;;;;11.37;9.07;;;16.40;76.40;;;;;;4955724;29;20493;-65
2023/02/14 11:00:00;;;;;;;9.83;8.13;;;16.10;77.20;;;;;;4956111;29;20877;-63
2023/02/14 11:02:49;;;;;;;9.00;7.83;;;15.90;77.90;;;;;;4936562;29;20282;-63
2023/02/14 11:05:40;;;;;;;10.63;8.20;;;15.90;78.50;;;;;;4956913;29;20487;-65
2023/02/14 11:08:28;;;;;;;12.70;9.00;;;15.80;78.50;;;;;;4958096;28;20414;-65
2023/02/14 11:11:01;;;;;;;9.20;8.07;;;15.50;79.40;;;;;;4957426;28;20940;-65
2023/02/14 11:13:36;;;;;;;11.20;9.03;;;15.30;80.40;;;;;;4955940;29;20424;-65
2023/02/14 11:16:11;;;;;;;13.03;8.87;;;15.50;80.20;;;;;;4957862;28;20416;-65
2023/02/14 11:18:39;;;;;;;12.43;9.83;;;15.70;79.70;;;;;;4957615;28;20413;-64
2023/02/14 11:21:23;;;;;;;12.27;8.83;;;15.70;79.10;;;;;;4957590;28;20412;-64
2023/02/14 11:23:50;;;;;;;11.33;8.63;;;15.30;80.10;;;;;;4957388;28;20436;-66
2023/02/14 11:26:21;;;;;;;14.50;9.03;;;14.80;81.30;;;;;;4957300;28;20428;-66
2023/02/14 11:28:53;;;;;;;12.40;8.87;;;14.30;82.70;;;;;;4957325;28;20499;-66
2023/02/14 11:31:36;;;;;;;12.57;8.53;;;13.70;83.40;;;;;;4957219;28;20499;-66
2023/02/14 11:34:05;;;;;;;11.57;8.47;;;12.80;86.10;;;;;;4955376;29;20977;-66
2023/02/14 11:36:33;;;;;;;11.60;9.37;;;12.20;87.20;;;;;;4957356;28;20401;-68
2023/02/14 11:39:15;;;;;;;13.83;8.83;;;11.60;89.40;;;;;;4957500;28;20409;-65
2023/02/14 11:41:48;;;;;;;16.00;9.43;;;11.20;90.20;;;;;;4957237;28;20431;-65
2023/02/14 11:44:21;;;;;;;14.03;9.93;;;11.00;90.60;;;;;;4956969;28;20534;-66
2023/02/14 11:46:48;;;;;;;18.27;9.83;;;10.80;91.20;;;;;;4957368;28;20463;-65
2023/02/14 11:49:30;;;;;;;17.53;9.70;;;10.70;91.60;;;;;;4972017;28;20460;-65
2023/02/14 11:51:58;;;;;;;12.23;8.83;;;10.50;92.00;;;;;;4957225;28;20987;-66
2023/02/14 11:54:28;;;;;;;13.90;9.93;;;10.30;92.40;;;;;;4956701;29;20466;-65
2023/02/14 11:57:30;;;;;;;18.83;10.03;;;10.20;93.30;;;;;;4956739;28;20462;-66
2023/02/14 11:59:56;;;;;;;11.38;9.10;;;10.00;94.20;;;;;;4956346;29;20516;-65
2023/02/14 12:02:22;;;;;;;12.13;8.85;;;9.80;95.40;;;;;;4956731;28;20176;-65
2023/02/14 12:04:52;;;;;;;12.33;8.70;;;9.80;95.60;;;;;;4956299;28;20192;-65
2023/02/14 12:07:34;;;;;;;12.45;8.93;;;9.60;96.50;;;;;;4956892;28;20173;-66
2023/02/14 12:10:14;;;;;;;16.02;10.18;;;9.70;96.70;;;;;;4956475;28;20223;-66
2023/02/14 12:13:09;;;;;;;13.23;8.88;;;9.70;96.80;;;;;;4956851;28;20639;-71
2023/02/14 12:15:50;;;;;;;10.60;7.82;;;9.80;96.80;;;;;;4955862;29;20217;-66
2023/02/14 12:18:28;;;;;;;12.07;8.77;;;9.80;96.60;;;;;;4956466;29;20168;-67
2023/02/14 12:20:55;;;;;;;12.20;8.65;;;9.90;96.70;;;;;;4956508;28;20176;-66
2023/02/14 12:23:38;;;;;;;12.30;8.18;;;9.90;96.50;;;;;;4970962;28;20191;-66
2023/02/14 12:26:34;;;;;;;11.45;8.27;;;9.90;97.00;;;;;;4956366;29;20235;-67
2023/02/14 12:29:16;;;;;;;9.10;7.53;;;9.90;97.20;;;;;;4956758;28;20212;-66
2023/02/14 12:31:43;;;;;;;10.82;7.13;;;9.90;97.30;;;;;;4956576;28;20169;-66
2023/02/14 12:34:11;;;;;;;12.55;8.60;;;9.90;97.00;;;;;;4956081;29;20602;-66
2023/02/14 12:37:05;;;;;;;11.98;8.20;;;10.00;96.10;;;;;;4955174;29;20172;-66
2023/02/14 12:39:31;;;;;;;11.60;8.63;;;10.00;96.30;;;;;;4956296;29;20535;-66
2023/02/14 12:42:25;;;;;;;10.10;7.60;;;10.00;96.20;;;;;;4955929;28;20227;-65
2023/02/14 12:45:11;;;;;;;10.18;8.27;;;10.00;96.10;;;;;;4954813;29;20579;-65
2023/02/14 12:48:13;;;;;;;11.20;7.45;;;10.00;96.10;;;;;;4956106;28;20293;-65
2023/02/14 12:50:45;;;;;;;9.35;7.20;;;10.10;96.30;;;;;;4956097;29;20295;-65
2023/02/14 12:53:31;;;;;;;10.65;7.13;;;10.10;96.60;;;;;;4955650;28;20185;-64
2023/02/14 12:56:18;;;;;;;8.07;6.80;;;10.20;96.50;;;;;;4948214;29;20186;-64
2023/02/14 12:58:55;;;;;;;9.25;7.40;;;10.30;96.30;;;;;;4956148;28;20673;-65
2023/02/14 13:01:58;;;;;;;9.57;7.30;;;10.40;96.50;;;;;;4955950;28;20175;-65
2023/02/14 13:04:45;;;;;;;11.52;9.82;;;10.50;96.70;;;;;;4955750;28;20218;-64
2023/02/14 13:07:21;;;;;;;10.60;7.57;;;10.50;97.70;;;;;;4955982;28;20177;-66
2023/02/14 13:10:22;;;;;;;11.52;8.07;;;10.50;98.00;;;;;;4955550;28;20559;-65
2023/02/14 13:13:05;;;;;;;13.90;8.73;;;10.50;98.20;;;;;;4955683;29;20204;-66
2023/02/14 13:15:57;;;;;;;16.52;7.22;;;10.60;98.40;;;;;;4955486;29;20209;-67
2023/02/14 13:19:00;;;;;;;13.55;9.38;;;10.60;98.40;;;;;;4954261;28;20166;-65
2023/02/14 13:21:30;;;;;;;12.60;8.93;;;10.60;98.40;;;;;;4955339;28;20177;-66
2023/02/14 13:24:10;;;;;;;9.85;7.30;;;10.60;98.40;;;;;;4954974;28;20249;-66
2023/02/14 13:26:39;;;;;;;10.52;7.82;;;10.60;97.80;;;;;;4970339;28;20194;-67
2023/02/14 13:29:19;;;;;;;9.20;6.90;;;10.50;97.90;;;;;;4954987;28;20228;-67
2023/02/14 13:31:45;;;;;;;10.45;8.60;;;10.50;98.10;;;;;;4955637;28;20172;-68
2023/02/14 13:34:27;;;;;;;10.27;7.43;;;10.50;98.50;;;;;;4953761;29;20212;-68
2023/02/14 13:36:55;;;;;;;10.57;8.45;;;10.50;98.40;;;;;;4955406;28;20257;-66
2023/02/14 13:39:34;;;;;;;11.88;7.30;;;10.50;98.50;;;;;;4955040;29;20173;-68
2023/02/14 13:42:00;;;;;;;15.68;8.35;;;10.60;98.40;;;;;;4954846;28;20219;-66
2023/02/14 13:44:40;;;;;;;10.00;7.40;;;10.60;98.10;;;;;;4954696;29;20699;-69
2023/02/14 13:47:14;;;;;;;9.75;7.82;;;10.60;98.20;;;;;;4954497;28;20173;-67
2023/02/14 13:50:05;;;;;;;9.63;7.97;;;10.60;98.40;;;;;;4955671;29;20366;-67
2023/02/14 13:52:46;;;;;;;9.20;7.25;;;10.50;98.20;;;;;;4954551;29;20263;-68
2023/02/14 13:55:28;;;;;;;14.02;8.95;;;10.50;98.10;;;;;;4953632;28;20284;-68
2023/02/14 13:58:20;;;;;;;11.48;8.13;;;10.60;98.40;;;;;;4952900;29;20304;-69
2023/02/14 14:00:47;;;;;;;11.75;7.32;;;10.60;98.60;;;;;;4951865;29;20299;-67
2023/02/14 14:03:27;;;;;;;10.38;8.05;;;10.60;98.70;;;;;;4951474;28;20183;-68
2023/02/14 14:06:00;;;;;;;10.10;8.20;;;10.60;98.60;;;;;;4953150;29;20857;-69
2023/02/14 14:08:26;;;;;;;13.63;8.20;;;10.50;98.70;;;;;;4953329;29;20678;-66
2023/02/14 14:10:56;;;;;;;10.20;7.23;;;10.50;99.00;;;;;;4969810;28;20205;-67
2023/02/14 14:14:21;;;;;;;9.50;8.50;;;10.50;99.00;;;;;;4954314;29;20224;-67
2023/02/14 14:16:59;;;;;;;8.60;6.57;;;10.50;99.00;;;;;;4933215;29;20265;-68
2023/02/14 14:19:25;;;;;;;14.38;8.65;;;10.50;99.00;;;;;;4933936;29;20178;-66
2023/02/14 14:22:13;;;;;;;11.70;8.80;;;10.40;99.10;;;;;;4933891;29;20253;-68
2023/02/14 14:24:49;;;;;;;9.55;7.40;;;10.40;99.40;;;;;;4917550;29;20281;-67
2023/02/14 14:27:34;;;;;;;10.45;7.68;;;10.40;99.40;;;;;;4933580;29;20276;-67
2023/02/14 14:30:18;;;;;;;10.43;7.85;;;10.40;99.60;;;;;;4933806;29;20201;-67
2023/02/14 14:32:44;;;;;;;11.73;7.53;;;10.40;99.90;;;;;;4933676;29;20252;-67
2023/02/14 14:35:20;;;;;;;12.10;8.40;;;10.30;99.90;;;;;;4933286;29;20220;-67
2023/02/14 14:37:54;;;;;;;11.52;8.10;;;10.30;99.90;;;;;;4933362;29;20181;-66
2023/02/14 14:40:31;;;;;;;12.02;7.68;;;10.20;99.90;;;;;;4933543;29;20185;-66
2023/02/14 14:43:05;;;;;;;11.75;8.73;;;10.20;99.90;;;;;;4933132;29;20190;-67
2023/02/14 14:45:32;;;;;;;11.98;8.32;;;10.10;99.90;;;;;;4933533;29;20212;-67
2023/02/14 14:48:08;;;;;;;11.43;8.57;;;10.10;99.90;;;;;;4951311;29;20189;-67
2023/02/14 14:50:35;;;;;;;12.10;8.35;;;10.00;99.90;;;;;;4954546;28;20211;-67
2023/02/14 14:53:04;;;;;;;11.98;8.05;;;10.00;99.90;;;;;;4954423;28;20187;-67
2023/02/14 14:55:34;;;;;;;10.98;7.90;;;9.90;99.90;;;;;;4954534;28;20189;-68
2023/02/14 14:58:03;;;;;;;12.07;8.55;;;9.90;99.90;;;;;;4954431;28;20173;-66
2023/02/14 15:00:34;;;;;;;9.88;7.50;;;9.80;99.90;;;;;;4954683;28;20177;-67
2023/02/14 15:03:14;;;;;;;13.45;8.45;;;9.80;99.90;;;;;;4954192;28;21061;-68
2023/02/14 15:05:41;;;;;;;10.43;8.27;;;9.70;99.90;;;;;;4956295;28;20728;-66
2023/02/14 15:08:31;;;;;;;10.00;7.72;;;9.70;99.90;;;;;;4958127;28;20176;-66
2023/02/14 15:11:10;;;;;;;12.15;8.27;;;9.70;99.90;;;;;;4958050;28;20200;-66
2023/02/14 15:13:52;;;;;;;13.27;8.10;;;9.70;99.90;;;;;;4957023;28;20542;-65
2023/02/14 15:16:31;;;;;;;9.50;8.27;;;9.60;99.90;;;;;;4972907;28;20200;-67
2023/02/14 15:19:06;;;;;;;15.43;9.50;;;9.60;99.90;;;;;;4958447;29;20187;-68
2023/02/14 15:21:32;;;;;;;12.63;8.60;;;9.50;99.90;;;;;;4957796;28;20555;-68
2023/02/14 15:23:59;;;;;;;12.45;9.65;;;9.40;99.90;;;;;;4956018;28;20196;-68
2023/02/14 15:26:31;;;;;;;13.05;8.23;;;9.30;99.90;;;;;;4956248;29;20635;-68
2023/02/14 15:29:03;;;;;;;11.48;7.88;;;9.20;99.90;;;;;;4956166;28;20670;-69
2023/02/14 15:31:32;;;;;;;10.27;8.63;;;9.20;99.90;;;;;;4957959;28;20181;-68
2023/02/14 15:34:00;;;;;;;12.02;7.45;;;9.10;99.90;;;;;;4957201;28;20733;-67
2023/02/14 15:36:26;;;;;;;10.63;8.80;;;9.00;99.90;;;;;;4957549;28;20240;-65
2023/02/14 15:38:53;;;;;;;9.77;8.13;;;9.00;99.90;;;;;;4957421;28;20690;-67
2023/02/14 15:41:19;;;;;;;14.07;8.52;;;8.90;99.90;;;;;;4956098;28;20177;-66
2023/02/14 15:43:50;;;;;;;14.07;9.35;;;8.90;99.90;;;;;;4956866;29;20176;-67
2023/02/14 15:46:38;;;;;;;8.75;7.40;;;8.80;99.90;;;;;;4957676;29;20175;-65
2023/02/14 15:49:15;;;;;;;13.65;8.95;;;8.70;99.90;;;;;;4956441;28;20228;-65
2023/02/14 15:51:41;;;;;;;15.88;8.63;;;8.70;99.90;;;;;;4953688;29;20183;-66
2023/02/14 15:54:32;;;;;;;12.20;8.63;;;8.50;99.90;;;;;;4956679;28;20192;-66
2023/02/14 15:56:58;;;;;;;8.50;5.97;;;8.50;99.90;;;;;;4957117;28;20177;-67
2023/02/14 15:59:28;;;;;;;14.25;8.70;;;8.40;99.90;;;;;;4957428;28;20189;-65
2023/02/14 16:01:59;;;;;;;9.50;7.38;;;8.40;99.90;;;;;;4957091;28;20172;-66
2023/02/14 16:04:28;;;;;;;9.20;8.18;;;8.30;99.90;;;;;;4956539;28;20279;-66
2023/02/14 16:07:17;;;;;;;9.75;6.90;;;8.20;99.90;;;;;;4971742;28;20274;-67
2023/02/14 16:09:43;;;;;;;10.07;7.60;;;8.10;99.90;;;;;;4955551;29;20208;-66
2023/02/14 16:12:34;;;;;;;11.13;8.23;;;8.00;99.90;;;;;;4957009;28;20223;-64
2023/02/14 16:15:18;;;;;;;10.68;7.75;;;7.90;99.90;;;;;;4955862;28;20204;-68
2023/02/14 16:17:45;;;;;;;14.75;9.35;;;7.90;99.90;;;;;;4956769;28;20284;-66
2023/02/14 16:20:26;;;;;;;14.15;9.15;;;7.70;99.90;;;;;;4956857;28;20255;-66
2023/02/14 16:22:52;;;;;;;12.55;8.30;;;7.60;99.90;;;;;;4956379;28;20199;-69
2023/02/14 16:25:18;;;;;;;12.57;9.63;;;7.50;99.90;;;;;;4956001;28;20559;-66
2023/02/14 16:27:44;;;;;;;15.38;9.50;;;7.50;99.90;;;;;;4956516;28;20634;-67
2023/02/14 16:30:17;;;;;;;14.90;9.03;;;7.40;99.90;;;;;;4956655;28;20258;-65
2023/02/14 16:32:47;;;;;;;13.15;9.48;;;7.30;99.90;;;;;;4955995;28;20181;-68
2023/02/14 16:35:20;;;;;;;14.32;10.68;;;7.20;99.90;;;;;;4956321;28;20220;-65
2023/02/14 16:37:46;;;;;;;13.68;8.65;;;7.10;99.90;;;;;;4955247;28;20231;-67
2023/02/14 16:40:14;;;;;;;11.63;8.57;;;7.00;99.90;;;;;;4956357;28;20243;-67
2023/02/14 16:42:40;;;;;;;17.05;9.70;;;7.00;99.90;;;;;;4956382;28;20175;-66
2023/02/14 16:45:06;;;;;;;14.07;8.43;;;6.90;99.90;;;;;;4971017;28;20204;-68
2023/02/14 16:47:32;;;;;;;10.30;7.68;;;6.70;99.90;;;;;;4956511;28;20187;-68
2023/02/14 16:49:57;;;;;;;15.63;9.13;;;6.70;99.90;;;;;;4954878;28;20566;-70
2023/02/14 16:52:26;;;;;;;16.00;8.63;;;6.50;99.90;;;;;;4954805;28;20177;-68
2023/02/14 16:54:52;;;;;;;13.68;7.90;;;6.40;99.90;;;;;;4969920;28;20293;-67
2023/02/14 16:57:24;;;;;;;13.17;8.60;;;6.40;99.90;;;;;;4956322;28;20258;-69
2023/02/14 16:59:50;;;;;;;13.02;9.48;;;6.30;99.90;;;;;;4956135;28;20293;-67
2023/02/14 17:02:17;;;;;;;11.60;8.60;;;6.20;99.90;;;;;;4955844;28;20267;-66
2023/02/14 17:04:43;;;;;;;15.07;7.57;;;6.20;99.90;;;;;;4955254;28;20200;-66
2023/02/14 17:07:10;;;;;;;12.97;8.60;;;6.10;99.90;;;;;;4955763;28;20187;-66
2023/02/14 17:09:40;;;;;;;15.52;10.68;;;6.00;99.90;;;;;;4955646;28;20457;-65
2023/02/14 17:12:13;;;;;;;14.57;9.20;;;5.90;99.90;;;;;;4954509;29;20173;-68
2023/02/14 17:14:42;;;;;;;19.95;10.10;;;5.80;99.90;;;;;;4955546;28;20547;-68
2023/02/14 17:17:09;;;;;;;11.52;8.10;;;5.80;99.90;;;;;;4955606;28;20177;-64
2023/02/14 17:19:35;;;;;;;11.23;8.45;;;5.70;99.90;;;;;;4955052;29;20536;-64
2023/02/14 17:22:03;;;;;;;11.70;8.77;;;5.60;99.90;;;;;;4954734;28;20178;-65
2023/02/14 17:24:29;;;;;;;9.80;7.05;;;5.60;99.90;;;;;;4954144;28;20215;-61
2023/02/14 17:26:54;;;;;;;8.30;7.10;;;5.60;99.90;;;;;;4954909;28;20182;-63
2023/02/14 17:29:20;;;;;;;11.70;9.03;;;5.60;99.90;;;;;;4954991;28;20804;-62
2023/02/14 17:31:46;;;;;;;14.13;8.47;;;5.50;99.90;;;;;;4955165;29;20168;-64
2023/02/14 17:34:11;;;;;;;10.10;8.27;;;5.40;99.90;;;;;;4955179;28;20429;-64
2023/02/14 17:36:37;;;;;;;11.17;8.10;;;5.40;99.90;;;;;;4955889;28;20169;-65
2023/02/14 17:39:04;;;;;;;10.13;7.80;;;5.30;99.90;;;;;;4954892;28;20178;-62
2023/02/14 17:41:29;;;;;;;14.75;8.43;;;5.20;99.90;;;;;;4955631;28;20173;-62
2023/02/14 17:43:59;;;;;;;14.70;8.63;;;5.10;99.90;;;;;;4955086;28;20209;-62
2023/02/14 17:46:31;;;;;;;13.40;8.35;;;5.10;99.90;;;;;;4969904;28;20179;-63
2023/02/14 17:48:57;;;;;;;12.13;8.20;;;5.00;99.90;;;;;;4954980;28;20228;-67
2023/02/14 17:51:23;;;;;;;14.07;10.45;;;5.00;99.90;;;;;;4943320;28;20180;-65
2023/02/14 17:53:49;;;;;;;14.10;9.30;;;4.90;99.90;;;;;;4946869;29;20220;-65
2023/02/14 17:56:21;;;;;;;13.07;8.40;;;4.80;99.90;;;;;;4949635;29;20227;-65
2023/02/14 17:58:49;;;;;;;10.93;7.35;;;4.80;99.90;;;;;;4945432;28;20424;-64
2023/02/14 18:01:17;;;;;;;12.55;7.70;;;4.80;99.90;;;;;;4955139;28;20168;-66
2023/02/14 18:03:43;;;;;;;12.30;9.43;;;4.70;99.90;;;;;;4954529;28;20177;-66
2023/02/14 18:06:10;;;;;;;12.43;9.85;;;4.70;99.90;;;;;;4953673;28;20612;-66
2023/02/14 18:08:38;;;;;;;11.48;8.75;;;4.60;99.90;;;;;;4954826;28;20180;-68
2023/02/14 18:11:08;;;;;;;11.32;7.28;;;4.60;99.90;;;;;;4954858;29;20276;-65
2023/02/14 18:13:34;;;;;;;14.90;8.35;;;4.50;99.90;;;;;;4953284;28;20179;-64
2023/02/14 18:16:05;;;;;;;14.63;9.52;;;4.50;99.90;;;;;;4955010;28;20243;-64
2023/02/14 18:18:31;;;;;;;15.40;8.90;;;4.40;99.90;;;;;;4954693;28;20173;-64